地図

経路データ

SID SEASON NUMBER BASIN SUBBASIN NAME ISO_TIME NATURE LAT LON WMO_WIND WMO_PRES WMO_AGENCY TRACK_TYPE DIST2LAND LANDFALL IFLAG USA_AGENCY USA_ATCF_ID USA_LAT USA_LON USA_RECORD USA_STATUS USA_WIND USA_PRES USA_SSHS USA_R34_NE USA_R34_SE USA_R34_SW USA_R34_NW USA_R50_NE USA_R50_SE USA_R50_SW USA_R50_NW USA_R64_NE USA_R64_SE USA_R64_SW USA_R64_NW USA_POCI USA_ROCI USA_RMW USA_EYE TOKYO_LAT TOKYO_LON TOKYO_GRADE TOKYO_WIND TOKYO_PRES TOKYO_R50_DIR TOKYO_R50_LONG TOKYO_R50_SHORT TOKYO_R30_DIR TOKYO_R30_LONG TOKYO_R30_SHORT TOKYO_LAND CMA_LAT CMA_LON CMA_CAT CMA_WIND CMA_PRES HKO_LAT HKO_LON HKO_CAT HKO_WIND HKO_PRES NEWDELHI_LAT NEWDELHI_LON NEWDELHI_GRADE NEWDELHI_WIND NEWDELHI_PRES NEWDELHI_CI NEWDELHI_DP NEWDELHI_POCI REUNION_LAT REUNION_LON REUNION_TYPE REUNION_WIND REUNION_PRES REUNION_TNUM REUNION_CI REUNION_RMW REUNION_R34_NE REUNION_R34_SE REUNION_R34_SW REUNION_R34_NW REUNION_R50_NE REUNION_R50_SE REUNION_R50_SW REUNION_R50_NW REUNION_R64_NE REUNION_R64_SE REUNION_R64_SW REUNION_R64_NW BOM_LAT BOM_LON BOM_TYPE BOM_WIND BOM_PRES BOM_TNUM BOM_CI BOM_RMW BOM_R34_NE BOM_R34_SE BOM_R34_SW BOM_R34_NW BOM_R50_NE BOM_R50_SE BOM_R50_SW BOM_R50_NW BOM_R64_NE BOM_R64_SE BOM_R64_SW BOM_R64_NW BOM_ROCI BOM_POCI BOM_EYE BOM_POS_METHOD BOM_PRES_METHOD NADI_LAT NADI_LON NADI_CAT NADI_WIND NADI_PRES WELLINGTON_LAT WELLINGTON_LON WELLINGTON_WIND WELLINGTON_PRES DS824_LAT DS824_LON DS824_STAGE DS824_WIND DS824_PRES TD9636_LAT TD9636_LON TD9636_STAGE TD9636_WIND TD9636_PRES TD9635_LAT TD9635_LON TD9635_WIND TD9635_PRES TD9635_ROCI NEUMANN_LAT NEUMANN_LON NEUMANN_CLASS NEUMANN_WIND NEUMANN_PRES MLC_LAT MLC_LON MLC_CLASS MLC_WIND MLC_PRES USA_GUST BOM_GUST BOM_GUST_PER REUNION_GUST REUNION_GUST_PER USA_SEAHGT USA_SEARAD_NE USA_SEARAD_SE USA_SEARAD_SW USA_SEARAD_NW STORM_SPEED STORM_DIR
1965049S14159 1965 21 SP EA NOT_NAMED 1965-02-18 00:00:00 TS -14.3000 159.000 main 495 495 O________OO___ jtwc_sh SH261965 -14.3000 159.000 -1 -14.3000 159.000 TC -14.3000 159.000 1 13 136
1965049S14159 1965 21 SP EA NOT_NAMED 1965-02-18 03:00:00 TS -14.7533 159.455 main 512 512 P________PP___ SH261965 -14.7577 159.467 -1 -14.7577 159.467 TC -14.7445 159.430 1 12 136
1965049S14159 1965 21 SP EA NOT_NAMED 1965-02-18 06:00:00 TS -15.1936 159.883 main 533 533 O________OP___ jtwc_sh SH261965 -15.2000 159.900 -1 -15.2000 159.900 TC -15.1809 159.849 1 12 138
1965049S14159 1965 21 SP MM NOT_NAMED 1965-02-18 09:00:00 TS -15.6105 160.263 main 561 561 P________PP___ SH261965 -15.6149 160.273 -1 -15.6149 160.273 TC -15.6018 160.243 1 11 139
1965049S14159 1965 21 SP MM NOT_NAMED 1965-02-18 12:00:00 TS -16.0000 160.600 main 596 551 O________OO___ jtwc_sh SH261965 -16.0000 160.600 -1 -16.0000 160.600 TC -16.0000 160.600 1 10 140
1965049S14159 1965 21 SP MM NOT_NAMED 1965-02-18 15:00:00 TS -16.3666 160.927 main 543 496 P________PP___ SH261965 -16.3650 160.938 -1 -16.3650 160.938 TC -16.3697 160.907 1 9 141
1965049S14159 1965 21 SP MM NOT_NAMED 1965-02-18 18:00:00 TS -16.7032 161.183 main 496 463 O________OP___ jtwc_sh SH261965 -16.7000 161.200 -1 -16.7000 161.200 TC -16.7096 161.150 1 8 149
1965049S14159 1965 21 SP MM NOT_NAMED 1965-02-18 21:00:00 TS -17.0165 161.341 main 463 431 P________PP___ SH261965 -17.0149 161.353 -1 -17.0149 161.353 TC -17.0198 161.319 1 6 161
1965049S14159 1965 21 SP MM NOT_NAMED 1965-02-19 00:00:00 TS -17.3000 161.400 main 431 406 O________OO___ jtwc_sh SH261965 -17.3000 161.400 -1 -17.3000 161.400 TC -17.3000 161.400 1 6 174
1965049S14159 1965 21 SP MM NOT_NAMED 1965-02-19 03:00:00 TS -17.5734 161.393 main 406 398 P________PP___ SH261965 -17.5650 161.388 -1 -17.5650 161.388 TC -17.5901 161.403 1 5 190
1965049S14159 1965 21 SP MM NOT_NAMED 1965-02-19 06:00:00 TS -17.8158 161.307 main 398 390 O________OP___ jtwc_sh SH261965 -17.8000 161.300 -1 -17.8000 161.300 TC -17.8473 161.321 1 5 204
1965049S14159 1965 21 SP MM NOT_NAMED 1965-02-19 09:00:00 TS -18.0336 161.174 main 390 383 P________PP___ SH261965 -18.0225 161.173 -1 -18.0225 161.173 TC -18.0558 161.178 1 5 217
1965049S14159 1965 21 SP MM NOT_NAMED 1965-02-19 12:00:00 TS -18.2000 161.000 main 392 392 O________OO___ jtwc_sh SH261965 -18.2000 161.000 -1 -18.2000 161.000 TC -18.2000 161.000 1 5 229
1965049S14159 1965 21 SP MM NOT_NAMED 1965-02-19 15:00:00 TS -18.3345 160.812 main 403 397 P________PP___ SH261965 -18.3450 160.808 -1 -18.3450 160.808 TC -18.3135 160.821 1 4 244
1965049S14159 1965 21 SP MM NOT_NAMED 1965-02-19 18:00:00 TS -18.3859 160.605 main 415 415 O________OP___ jtwc_sh SH261965 -18.4000 160.600 -1 -18.4000 160.600 TC -18.3576 160.615 1 4 268
1965049S14159 1965 21 SP MM NOT_NAMED 1965-02-19 21:00:00 TS -18.3476 160.396 main 439 439 P________PP___ SH261965 -18.3600 160.393 -1 -18.3600 160.393 TC -18.3229 160.402 1 4 296
1965049S14159 1965 21 SP MM NOT_NAMED 1965-02-20 00:00:00 TS -18.2000 160.200 main 462 462 O________OO___ jtwc_sh SH261965 -18.2000 160.200 -1 -18.2000 160.200 TC -18.2000 160.200 1 5 320
1965049S14159 1965 21 SP MM NOT_NAMED 1965-02-20 03:00:00 TS -17.9460 160.043 main 498 498 P________PP___ SH261965 -17.9300 160.042 -1 -17.9300 160.042 TC -17.9780 160.044 1 6 334
1965049S14159 1965 21 SP EA NOT_NAMED 1965-02-20 06:00:00 TS -17.6249 159.900 main 526 526 O________OP___ jtwc_sh SH261965 -17.6000 159.900 -1 -17.6000 159.900 TC -17.6748 159.900 1 7 337
1965049S14159 1965 21 SP EA NOT_NAMED 1965-02-20 09:00:00 TS -17.3114 159.757 main 555 555 P________PP___ SH261965 -17.3000 159.758 -1 -17.3000 159.758 TC -17.3342 159.756 1 7 336
1965049S14159 1965 21 SP EA NOT_NAMED 1965-02-20 12:00:00 TS -17.0000 159.600 main 592 592 O________OO___ jtwc_sh SH261965 -17.0000 159.600 -1 -17.0000 159.600 TC -17.0000 159.600 1 7 332
1965049S14159 1965 21 SP EA NOT_NAMED 1965-02-20 15:00:00 TS -16.6884 159.404 main 630 630 P________PP___ SH261965 -16.6850 159.407 -1 -16.6850 159.407 TC -16.6951 159.398 1 7 327
1965049S14159 1965 21 SP EA NOT_NAMED 1965-02-20 18:00:00 TS -16.4034 159.195 main 668 668 O________OP___ jtwc_sh SH261965 -16.4000 159.200 -1 -16.4000 159.200 TC -16.4102 159.185 1 7 322
1965049S14159 1965 21 SP EA NOT_NAMED 1965-02-20 21:00:00 TS -16.1650 158.983 main 676 661 P________PP___ SH261965 -16.1625 158.985 -1 -16.1625 158.985 TC -16.1701 158.979 1 6 317
1965049S14159 1965 21 SP EA NOT_NAMED 1965-02-21 00:00:00 TS -16.0000 158.800 main 666 662 O________OO___ jtwc_sh SH261965 -16.0000 158.800 -1 -16.0000 158.800 TC -16.0000 158.800 1 4 311
1965049S14159 1965 21 SP EA NOT_NAMED 1965-02-21 03:00:00 TS -15.9149 158.683 main 662 662 P________PP___ SH261965 -15.9125 158.685 -1 -15.9125 158.685 TC -15.9199 158.680 1 2 296
1965049S14159 1965 21 SP EA NOT_NAMED 1965-02-21 06:00:00 TS -15.9033 158.595 main 667 667 O________OP___ jtwc_sh SH261965 -15.9000 158.600 -1 -15.9000 158.600 TC -15.9098 158.585 1 2 262
1965049S14159 1965 21 SP EA NOT_NAMED 1965-02-21 09:00:00 TS -15.9383 158.504 main 673 673 P________PP___ SH261965 -15.9350 158.508 -1 -15.9350 158.508 TC -15.9449 158.498 1 2 242
1965049S14159 1965 21 SP EA NOT_NAMED 1965-02-21 12:00:00 TS -16.0000 158.400 main 688 688 O________OO___ jtwc_sh SH261965 -16.0000 158.400 -1 -16.0000 158.400 TC -16.0000 158.400 1 3 246
1965049S14159 1965 21 SP EA NOT_NAMED 1965-02-21 15:00:00 TS -16.0452 158.257 main 694 694 P________PP___ SH261965 -16.0500 158.258 -1 -16.0500 158.258 TC -16.0357 158.256 1 3 252
1965049S14159 1965 21 SP EA NOT_NAMED 1965-02-21 18:00:00 TS -16.0950 158.100 main 715 715 O________OP___ jtwc_sh SH261965 -16.1000 158.100 -1 -16.1000 158.100 TC -16.0851 158.100 1 3 251
1965049S14159 1965 21 SP EA NOT_NAMED 1965-02-21 21:00:00 TS -16.1473 157.943 main 728 728 P________PP___ SH261965 -16.1500 157.943 -1 -16.1500 157.943 TC -16.1419 157.944 1 3 250
1965049S14159 1965 21 SP EA NOT_NAMED 1965-02-22 00:00:00 TS -16.2000 157.800 main 743 743 O________OO___ jtwc_sh SH261965 -16.2000 157.800 -1 -16.2000 157.800 TC -16.2000 157.800 1 3 247
1965049S14159 1965 21 SP EA NOT_NAMED 1965-02-22 03:00:00 TS -16.2514 157.688 main 758 758 P________PP___ SH261965 -16.2500 157.693 -1 -16.2500 157.693 TC -16.2543 157.678 1 2 243
1965049S14159 1965 21 SP EA NOT_NAMED 1965-02-22 06:00:00 TS -16.3017 157.592 main 764 764 O________OP___ jtwc_sh SH261965 -16.3000 157.600 -1 -16.3000 157.600 TC -16.3050 157.575 1 2 242
1965049S14159 1965 21 SP EA NOT_NAMED 1965-02-22 09:00:00 TS -16.3510 157.496 main 779 779 P________PP___ SH261965 -16.3500 157.503 -1 -16.3500 157.503 TC -16.3531 157.484 1 2 242
1965049S14159 1965 21 SP EA NOT_NAMED 1965-02-22 12:00:00 TS -16.4000 157.400 main 783 O________OO___ jtwc_sh SH261965 -16.4000 157.400 -1 -16.4000 157.400 TC -16.4000 157.400 1 2 242

デジタル台風データ・検索

IBTrACS Databaseについて

本データベースは、米国NOAAが公開する1842年以降の世界の熱帯低気圧のベストトラックデータアーカイブInternational Best Track Archive for Climate Stewardship (IBTrACS)を、ウェブで閲覧しやすい形式に変換したものです。

最終更新日:2021-11-26